KMFD/MFD METAR and TAF weather

Enter ICAO airport designator
Station Type Date Time Source
KMFD METAR 2019/12/12 16:52 UTC NOAA

KMFD 121652Z 17014KT 10SM CLR 01/M07 A3049 RMK AO2 SLP344 T00061072


Station Type Date Time Source
KMFD Decoded METAR 2019/12/12 16:52 UTC NOAA

LAHM MUNICIPAL AIRPORT, OH, United States (KMFD) 40-49N 082-31W 395M
Dec 12, 2019 - 11:52 AM EST / 2019.12.12 1652 UTC
Wind: from the S (170 degrees) at 16 MPH (14 KT):0
Visibility: 10 mile(s):0
Sky conditions: clear
Temperature: 33.1 F (0.6 C)
Windchill: 23 F (-5 C):1
Dew Point: 19.0 F (-7.2 C)
Relative Humidity: 55%
Pressure (altimeter): 30.49 in. Hg (1032 hPa)
ob: KMFD 121652Z 17014KT 10SM CLR 01/M07 A3049 RMK AO2 SLP344 T00061072
cycle: 17

Station Type Date Time Source
KMFD TAF 2019/12/12 12:30 UTC NOAA

TAF KMFD 121128Z 1212/1312 16010KT P6SM SCT250
FM122000 17014KT P6SM BKN250

Example: see airport list